createdAt,value
2022-11-28T00:01:25.568Z,6.90
2022-11-28T00:03:52.577Z,6.90
2022-11-28T00:06:19.561Z,6.90
2022-11-28T00:08:46.556Z,6.80
2022-11-28T00:11:15.905Z,6.80
2022-11-28T00:13:43.514Z,6.80
2022-11-28T00:16:15.834Z,6.70
2022-11-28T00:18:42.746Z,6.70
2022-11-28T00:21:12.258Z,6.70
2022-11-28T00:23:39.287Z,6.80
2022-11-28T00:26:19.230Z,6.70
2022-11-28T00:28:46.373Z,6.80
2022-11-28T00:31:14.629Z,6.80
2022-11-28T00:33:42.093Z,6.80
2022-11-28T00:36:09.389Z,6.80
2022-11-28T00:38:36.093Z,6.80
2022-11-28T00:41:06.347Z,6.80
2022-11-28T00:43:33.456Z,6.80
2022-11-28T00:46:00.575Z,6.80
2022-11-28T00:48:28.037Z,6.80
2022-11-28T00:50:55.418Z,6.80
2022-11-28T00:53:22.232Z,6.80
2022-11-28T00:55:49.034Z,6.80
2022-11-28T00:58:15.787Z,6.80
2022-11-28T01:00:42.567Z,6.80
2022-11-28T01:03:09.327Z,6.80
2022-11-28T01:05:40.909Z,6.80
2022-11-28T01:08:07.822Z,6.80
2022-11-28T01:10:34.629Z,6.70
2022-11-28T01:13:01.524Z,6.70
2022-11-28T01:15:28.388Z,6.70
2022-11-28T01:17:55.222Z,6.70
2022-11-28T01:20:22.005Z,6.70
2022-11-28T01:22:48.805Z,6.70
2022-11-28T01:25:15.963Z,6.70
2022-11-28T01:27:42.743Z,6.60
2022-11-28T01:30:09.666Z,6.70
2022-11-28T01:32:36.431Z,6.60
2022-11-28T01:35:03.465Z,6.70
2022-11-28T01:37:30.715Z,6.60
2022-11-28T01:39:57.461Z,6.60
2022-11-28T01:42:24.533Z,6.70
2022-11-28T01:44:54.329Z,6.70
2022-11-28T01:47:25.506Z,6.70
2022-11-28T01:49:53.898Z,6.70
2022-11-28T01:52:22.933Z,6.70
2022-11-28T01:54:54.673Z,6.60
2022-11-28T01:57:25.263Z,6.70
2022-11-28T02:00:13.894Z,6.70
2022-11-28T02:03:00.652Z,6.60
2022-11-28T02:05:27.375Z,6.60
2022-11-28T02:07:54.252Z,6.70
2022-11-28T02:10:26.111Z,6.60
2022-11-28T02:13:10.970Z,6.60
2022-11-28T02:15:40.783Z,6.70
2022-11-28T02:18:25.299Z,6.60
2022-11-28T02:21:23.031Z,6.60
2022-11-28T02:23:55.293Z,6.60
2022-11-28T02:26:39.629Z,6.70
2022-11-28T02:29:20.398Z,6.70
2022-11-28T02:31:53.227Z,6.70
2022-11-28T02:34:34.000Z,6.70
2022-11-28T02:37:08.608Z,6.70
2022-11-28T02:39:59.371Z,6.70
2022-11-28T02:42:40.604Z,6.70
2022-11-28T02:45:28.231Z,6.70
2022-11-28T02:48:01.852Z,6.80
2022-11-28T02:51:23.834Z,6.80
2022-11-28T02:53:52.288Z,6.80
2022-11-28T02:56:19.204Z,6.80
2022-11-28T02:58:46.010Z,6.80
2022-11-28T03:01:27.649Z,6.80
2022-11-28T03:04:13.369Z,6.80
2022-11-28T03:06:58.372Z,6.90
2022-11-28T03:09:50.031Z,6.80
2022-11-28T03:12:39.235Z,6.90
2022-11-28T03:15:09.339Z,6.90
2022-11-28T03:17:52.279Z,6.90
2022-11-28T03:20:31.676Z,6.80
2022-11-28T03:23:10.200Z,6.90
2022-11-28T03:26:00.050Z,6.90
2022-11-28T03:28:32.020Z,6.90
2022-11-28T03:31:04.650Z,6.90
2022-11-28T03:33:35.868Z,6.90
2022-11-28T03:36:24.538Z,7.00
2022-11-28T03:38:56.454Z,7.00
2022-11-28T03:41:42.086Z,7.00
2022-11-28T03:44:16.270Z,7.00
2022-11-28T03:46:47.348Z,6.90
2022-11-28T03:49:17.198Z,6.90
2022-11-28T03:51:52.395Z,6.90
2022-11-28T03:54:34.290Z,7.00
2022-11-28T03:57:07.013Z,6.80
2022-11-28T03:59:38.196Z,6.80
2022-11-28T04:02:35.631Z,6.90
2022-11-28T04:05:39.613Z,6.90
2022-11-28T04:08:20.703Z,6.90
2022-11-28T04:10:50.480Z,6.90
2022-11-28T04:13:56.210Z,6.90
2022-11-28T04:16:34.900Z,6.90
2022-11-28T04:19:25.412Z,6.90
2022-11-28T04:22:07.277Z,6.90
2022-11-28T04:24:38.828Z,6.90
2022-11-28T04:27:10.046Z,6.90
2022-11-28T04:29:43.018Z,6.90
2022-11-28T04:32:13.068Z,6.90
2022-11-28T04:34:43.511Z,6.90
2022-11-28T04:37:14.359Z,6.90
2022-11-28T04:39:48.185Z,6.90
2022-11-28T04:42:23.202Z,6.90
2022-11-28T04:45:11.710Z,6.90
2022-11-28T04:50:52.955Z,6.90
2022-11-28T04:53:31.503Z,6.90
2022-11-28T04:56:05.008Z,6.90
2022-11-28T04:58:36.882Z,6.90
2022-11-28T05:01:17.074Z,6.90
2022-11-28T05:03:46.692Z,7.00
2022-11-28T05:06:30.334Z,7.00
2022-11-28T05:08:58.007Z,7.10
2022-11-28T05:11:25.710Z,7.00
2022-11-28T05:13:53.098Z,7.00
2022-11-28T05:16:20.677Z,7.00
2022-11-28T05:18:47.556Z,7.00
2022-11-28T05:21:14.634Z,7.00
2022-11-28T05:23:43.645Z,7.00
2022-11-28T05:26:16.510Z,7.20
2022-11-28T05:28:45.112Z,7.10
2022-11-28T05:31:12.160Z,7.10
2022-11-28T05:33:39.400Z,7.10
2022-11-28T05:36:13.464Z,7.20
2022-11-28T05:38:41.545Z,7.20
2022-11-28T05:41:09.048Z,7.20
2022-11-28T05:43:36.202Z,7.20
2022-11-28T05:46:06.187Z,7.20
2022-11-28T05:48:33.088Z,7.20
2022-11-28T05:50:59.980Z,7.20
2022-11-28T05:53:26.870Z,7.20
2022-11-28T05:55:53.568Z,7.20
2022-11-28T05:58:21.684Z,7.10
2022-11-28T06:00:48.704Z,7.10
2022-11-28T06:03:15.503Z,7.10
2022-11-28T06:05:44.164Z,7.10
2022-11-28T06:08:12.397Z,7.10
2022-11-28T06:10:39.721Z,7.10
2022-11-28T06:13:06.536Z,7.10
2022-11-28T06:15:37.604Z,7.10
2022-11-28T06:18:05.443Z,7.20
2022-11-28T06:20:34.495Z,7.10
2022-11-28T06:23:01.385Z,7.00
2022-11-28T06:25:28.259Z,7.00
2022-11-28T06:27:55.012Z,7.00
2022-11-28T06:30:21.798Z,7.00
2022-11-28T06:32:48.693Z,7.00
2022-11-28T06:35:15.563Z,7.10
2022-11-28T06:37:42.484Z,7.10
2022-11-28T06:40:09.537Z,7.10
2022-11-28T06:42:36.868Z,7.10
2022-11-28T06:45:07.191Z,7.20
2022-11-28T06:47:33.984Z,7.10
2022-11-28T06:50:01.011Z,7.10
2022-11-28T06:52:28.056Z,7.10
2022-11-28T06:54:55.073Z,7.10
2022-11-28T06:57:22.316Z,7.10
2022-11-28T06:59:50.624Z,7.10
2022-11-28T07:02:17.488Z,7.00
2022-11-28T07:04:44.372Z,7.00
2022-11-28T07:07:16.094Z,7.00
2022-11-28T07:09:43.791Z,7.00
2022-11-28T07:12:10.941Z,7.00
2022-11-28T07:14:38.260Z,7.10
2022-11-28T07:17:05.353Z,7.00
2022-11-28T07:19:32.259Z,7.00
2022-11-28T07:21:59.082Z,7.10
2022-11-28T07:24:25.779Z,7.00
2022-11-28T07:26:52.543Z,7.00
2022-11-28T07:29:19.519Z,7.10
2022-11-28T07:31:46.677Z,7.10
2022-11-28T07:34:13.504Z,7.10
2022-11-28T07:36:40.565Z,7.10
2022-11-28T07:39:08.790Z,7.10
2022-11-28T07:41:35.788Z,7.20
2022-11-28T07:44:04.288Z,7.10
2022-11-28T07:46:33.184Z,7.10
2022-11-28T07:49:00.829Z,7.10
2022-11-28T07:51:30.268Z,7.10
2022-11-28T07:53:57.820Z,7.10
2022-11-28T07:56:50.118Z,7.10
2022-11-28T07:59:16.854Z,7.10
2022-11-28T08:01:43.996Z,7.10
2022-11-28T08:04:10.944Z,7.10
2022-11-28T08:06:40.496Z,7.20
2022-11-28T08:09:07.670Z,7.20
2022-11-28T08:11:35.516Z,7.10
2022-11-28T08:14:04.369Z,7.20
2022-11-28T08:16:31.620Z,7.20
2022-11-28T08:19:01.221Z,7.20
2022-11-28T08:21:30.705Z,7.20
2022-11-28T08:24:00.085Z,7.20
2022-11-28T08:26:30.651Z,7.20
2022-11-28T08:28:58.422Z,7.20
2022-11-28T08:31:29.314Z,7.20
2022-11-28T08:33:57.747Z,7.20
2022-11-28T08:36:24.621Z,7.20
2022-11-28T08:39:03.871Z,7.20
2022-11-28T08:41:38.559Z,7.20
2022-11-28T08:44:05.419Z,7.20
2022-11-28T08:46:33.260Z,7.30
2022-11-28T08:49:04.183Z,7.20
2022-11-28T08:51:31.440Z,7.20
2022-11-28T08:53:59.773Z,7.20
2022-11-28T08:56:27.244Z,7.20
2022-11-28T08:58:54.616Z,7.20
2022-11-28T09:01:24.147Z,7.30
2022-11-28T09:03:51.867Z,7.30
2022-11-28T09:06:20.549Z,7.30
2022-11-28T09:08:48.100Z,7.30
2022-11-28T09:11:17.815Z,7.30
2022-11-28T09:13:45.789Z,7.30
2022-11-28T09:16:13.374Z,7.30
2022-11-28T09:18:40.299Z,7.40
2022-11-28T09:21:09.595Z,7.40
2022-11-28T09:23:37.889Z,7.50
2022-11-28T09:26:09.451Z,7.30
2022-11-28T09:28:36.338Z,7.40
2022-11-28T09:31:04.688Z,7.50
2022-11-28T09:33:31.844Z,7.50
2022-11-28T09:35:58.728Z,7.50
2022-11-28T09:38:25.945Z,7.50
2022-11-28T09:40:52.991Z,7.50
2022-11-28T09:43:44.075Z,7.50
2022-11-28T09:46:18.177Z,7.60
2022-11-28T09:48:52.113Z,7.60
2022-11-28T09:51:29.423Z,7.60
2022-11-28T09:54:15.430Z,7.70
2022-11-28T09:56:44.241Z,7.70
2022-11-28T09:59:22.814Z,7.70
2022-11-28T10:02:04.287Z,7.70
2022-11-28T10:04:51.245Z,7.70
2022-11-28T10:07:54.841Z,7.80
2022-11-28T10:10:58.050Z,7.80
2022-11-28T10:13:59.861Z,7.80
2022-11-28T10:16:43.436Z,7.80
2022-11-28T10:19:46.061Z,7.90
2022-11-28T10:22:06.655Z,7.90
2022-11-28T10:24:44.692Z,7.90
2022-11-28T10:27:14.428Z,7.90
2022-11-28T10:29:52.144Z,7.90
2022-11-28T10:32:24.482Z,7.90
2022-11-28T10:35:05.420Z,7.90
2022-11-28T10:37:36.679Z,7.90
2022-11-28T10:40:19.315Z,7.90
2022-11-28T10:43:22.623Z,7.90
2022-11-28T10:46:11.360Z,7.90
2022-11-28T10:48:51.215Z,7.90
2022-11-28T10:51:34.176Z,7.90
2022-11-28T10:54:30.050Z,7.90
2022-11-28T10:57:13.974Z,7.90
2022-11-28T10:59:49.907Z,7.90
2022-11-28T11:02:45.674Z,7.90
2022-11-28T11:05:19.064Z,8.00
2022-11-28T11:07:54.286Z,7.90
2022-11-28T11:10:39.376Z,8.00
2022-11-28T11:13:23.673Z,8.00
2022-11-28T11:16:00.011Z,8.00
2022-11-28T11:18:56.294Z,7.90
2022-11-28T11:21:27.366Z,8.00
2022-11-28T11:24:17.355Z,8.00
2022-11-28T11:26:51.792Z,8.00
2022-11-28T11:29:29.146Z,8.00
2022-11-28T11:31:58.256Z,8.00
2022-11-28T11:34:25.296Z,8.00
2022-11-28T11:36:56.343Z,8.00
2022-11-28T11:39:25.321Z,7.90
2022-11-28T11:42:10.857Z,7.90
2022-11-28T11:44:38.384Z,7.80
2022-11-28T11:47:07.798Z,7.90
2022-11-28T11:49:45.125Z,7.80
2022-11-28T11:52:15.033Z,7.80
2022-11-28T11:54:57.245Z,7.80
2022-11-28T11:57:39.385Z,7.80
2022-11-28T12:00:22.509Z,7.80
2022-11-28T12:03:03.106Z,7.80
2022-11-28T12:06:06.150Z,7.90
2022-11-28T12:08:41.726Z,7.90
2022-11-28T12:11:14.956Z,7.80
2022-11-28T12:13:42.846Z,7.80
2022-11-28T12:16:12.657Z,7.80
2022-11-28T12:19:17.359Z,7.70
2022-11-28T12:22:05.913Z,7.70
2022-11-28T12:24:50.848Z,7.70
2022-11-28T12:27:51.780Z,7.60
2022-11-28T12:30:39.229Z,7.70
2022-11-28T12:33:23.095Z,7.70
2022-11-28T12:36:04.637Z,7.70
2022-11-28T12:38:49.066Z,7.70
2022-11-28T12:41:40.380Z,7.60
2022-11-28T12:44:27.889Z,7.60
2022-11-28T12:47:12.405Z,7.60
2022-11-28T12:49:48.293Z,7.70
2022-11-28T12:52:20.904Z,7.60
2022-11-28T12:54:53.379Z,7.60
2022-11-28T12:57:47.864Z,7.70
2022-11-28T13:00:22.396Z,7.70
2022-11-28T13:03:35.938Z,7.70
2022-11-28T13:06:14.578Z,7.70
2022-11-28T13:08:56.543Z,7.70
2022-11-28T13:11:23.261Z,7.70
2022-11-28T13:14:08.803Z,7.60
2022-11-28T13:16:54.829Z,7.80
2022-11-28T13:19:28.050Z,7.70
2022-11-28T13:22:25.045Z,7.70
2022-11-28T13:25:04.093Z,7.70
2022-11-28T13:27:43.653Z,7.70
2022-11-28T13:30:23.773Z,7.70
2022-11-28T13:33:06.031Z,7.70
2022-11-28T13:35:34.176Z,7.70
2022-11-28T13:38:45.990Z,7.70
2022-11-28T13:41:35.307Z,7.70
2022-11-28T13:44:04.636Z,7.70
2022-11-28T13:46:33.233Z,7.60
2022-11-28T13:49:16.070Z,7.70
2022-11-28T13:51:48.123Z,7.60
2022-11-28T13:54:18.440Z,7.60
2022-11-28T13:57:13.849Z,7.70
2022-11-28T13:59:40.783Z,7.60
2022-11-28T14:02:23.118Z,7.60
2022-11-28T14:04:50.514Z,7.60
2022-11-28T14:07:32.937Z,7.50
2022-11-28T14:10:19.766Z,7.60
2022-11-28T14:13:07.825Z,7.60
2022-11-28T14:15:40.774Z,7.60
2022-11-28T14:18:58.724Z,7.50
2022-11-28T14:22:02.056Z,7.60
2022-11-28T14:24:40.795Z,7.50
2022-11-28T14:27:12.659Z,7.50
2022-11-28T14:29:41.958Z,7.50
2022-11-28T14:32:42.578Z,7.60
2022-11-28T14:35:17.633Z,7.60
2022-11-28T14:37:53.658Z,7.60
2022-11-28T14:40:57.968Z,7.60
2022-11-28T14:43:27.909Z,7.60
2022-11-28T14:46:16.747Z,7.60
2022-11-28T14:48:58.984Z,7.60
2022-11-28T14:51:47.595Z,7.60
2022-11-28T14:54:29.248Z,7.60
2022-11-28T14:57:00.092Z,7.60
2022-11-28T14:59:37.399Z,7.60
2022-11-28T15:02:13.029Z,7.60
2022-11-28T15:05:17.277Z,7.60
2022-11-28T15:08:11.798Z,7.60
2022-11-28T15:10:56.558Z,7.60
2022-11-28T15:13:41.847Z,7.60
2022-11-28T15:16:16.386Z,7.60
2022-11-28T15:18:56.067Z,7.60
2022-11-28T15:21:23.035Z,7.60
2022-11-28T15:23:50.108Z,7.60
2022-11-28T15:26:21.148Z,7.60
2022-11-28T15:28:47.956Z,7.60
2022-11-28T15:31:23.047Z,7.60
2022-11-28T15:33:51.093Z,7.60
2022-11-28T15:36:28.289Z,7.60
2022-11-28T15:38:56.025Z,7.60
2022-11-28T15:41:27.515Z,7.60
2022-11-28T15:43:55.934Z,7.60
2022-11-28T15:46:34.177Z,7.60
2022-11-28T15:49:01.747Z,7.60
2022-11-28T15:51:32.741Z,7.60
2022-11-28T15:53:59.986Z,7.60
2022-11-28T15:56:26.919Z,7.60
2022-11-28T15:58:55.716Z,7.70
2022-11-28T16:01:25.409Z,7.60
2022-11-28T16:04:14.828Z,7.70
2022-11-28T16:06:44.146Z,7.70
2022-11-28T16:09:35.499Z,7.60
2022-11-28T16:12:05.034Z,7.70
2022-11-28T16:14:35.451Z,7.70
2022-11-28T16:17:06.704Z,7.70
2022-11-28T16:19:36.385Z,7.70
2022-11-28T16:22:07.932Z,7.60
2022-11-28T16:24:57.456Z,7.70
2022-11-28T16:27:39.069Z,7.70
2022-11-28T16:30:43.504Z,7.70
2022-11-28T16:33:44.895Z,7.70
2022-11-28T16:36:25.120Z,7.70
2022-11-28T16:39:03.459Z,7.70
2022-11-28T16:41:31.960Z,7.70
2022-11-28T16:44:06.192Z,7.70
2022-11-28T16:46:39.762Z,7.70
2022-11-28T16:49:09.011Z,7.70
2022-11-28T16:51:36.836Z,7.70
2022-11-28T16:54:27.967Z,7.70
2022-11-28T16:56:57.518Z,7.70
2022-11-28T16:59:25.068Z,7.70
2022-11-28T17:01:53.413Z,7.70
2022-11-28T17:04:22.877Z,7.80
2022-11-28T17:06:51.065Z,7.80
2022-11-28T17:09:18.790Z,7.80
2022-11-28T17:12:14.409Z,7.70
2022-11-28T17:14:41.141Z,7.70
2022-11-28T17:17:15.690Z,7.70
2022-11-28T17:19:42.799Z,7.70
2022-11-28T17:22:17.008Z,7.80
2022-11-28T17:24:44.425Z,7.80
2022-11-28T17:27:14.784Z,7.80
2022-11-28T17:29:42.258Z,7.80
2022-11-28T17:32:15.617Z,7.80
2022-11-28T17:34:42.966Z,7.80
2022-11-28T17:37:10.182Z,7.80
2022-11-28T17:39:36.926Z,7.80
2022-11-28T17:42:04.731Z,7.90
2022-11-28T17:44:34.565Z,7.80
2022-11-28T17:47:02.301Z,7.80
2022-11-28T17:49:30.766Z,7.70
2022-11-28T17:51:57.900Z,7.80
2022-11-28T17:54:26.281Z,7.80
2022-11-28T17:56:54.093Z,7.80
2022-11-28T17:59:23.226Z,7.80
2022-11-28T18:01:50.512Z,7.80
2022-11-28T18:04:17.634Z,7.80
2022-11-28T18:06:46.378Z,7.80
2022-11-28T18:09:14.281Z,7.80
2022-11-28T18:11:42.217Z,7.80
2022-11-28T18:14:09.580Z,7.80
2022-11-28T18:16:36.631Z,7.80
2022-11-28T18:19:04.186Z,7.80
2022-11-28T18:21:31.743Z,7.80
2022-11-28T18:23:58.711Z,7.80
2022-11-28T18:26:26.517Z,7.90
2022-11-28T18:28:54.255Z,7.80
2022-11-28T18:31:26.478Z,7.80
2022-11-28T18:34:01.650Z,7.80
2022-11-28T18:36:30.734Z,7.90
2022-11-28T18:39:02.859Z,7.90
2022-11-28T18:41:30.475Z,7.90
2022-11-28T18:44:02.361Z,7.90
2022-11-28T18:46:30.380Z,7.90
2022-11-28T18:48:57.769Z,7.90
2022-11-28T18:51:27.752Z,7.90
2022-11-28T18:53:55.108Z,7.90
2022-11-28T18:56:22.788Z,7.90
2022-11-28T18:58:51.909Z,7.90
2022-11-28T19:01:25.508Z,7.90
2022-11-28T19:03:55.355Z,7.90
2022-11-28T19:06:22.618Z,7.90
2022-11-28T19:08:53.518Z,7.90
2022-11-28T19:11:20.884Z,7.90
2022-11-28T19:13:48.588Z,8.00
2022-11-28T19:16:18.418Z,7.90
2022-11-28T19:18:45.878Z,7.90
2022-11-28T19:21:16.004Z,7.90
2022-11-28T19:23:43.356Z,7.90
2022-11-28T19:26:12.342Z,7.90
2022-11-28T19:28:41.930Z,7.90
2022-11-28T19:31:27.344Z,7.90
2022-11-28T19:34:00.881Z,7.90
2022-11-28T19:36:32.868Z,7.90
2022-11-28T19:39:01.004Z,7.90
2022-11-28T19:41:30.984Z,8.00
2022-11-28T19:43:58.107Z,8.00
2022-11-28T19:46:29.224Z,8.00
2022-11-28T19:48:59.163Z,8.00
2022-11-28T19:51:26.116Z,8.10
2022-11-28T19:53:55.362Z,8.00
2022-11-28T19:56:25.369Z,8.00
2022-11-28T19:58:53.008Z,8.00
2022-11-28T20:01:22.779Z,8.00
2022-11-28T20:03:51.086Z,8.00
2022-11-28T20:06:24.008Z,8.00
2022-11-28T20:08:53.202Z,8.00
2022-11-28T20:11:34.069Z,8.10
2022-11-28T20:14:06.463Z,8.10
2022-11-28T20:16:35.166Z,8.10
2022-11-28T20:19:03.050Z,8.10
2022-11-28T20:21:33.251Z,8.10
2022-11-28T20:24:04.651Z,8.10
2022-11-28T20:26:35.568Z,8.10
2022-11-28T20:29:03.186Z,8.10
2022-11-28T20:31:36.506Z,8.10
2022-11-28T20:34:04.240Z,8.10
2022-11-28T20:36:32.564Z,8.10
2022-11-28T20:39:00.269Z,8.10
2022-11-28T20:41:30.113Z,8.10
2022-11-28T20:44:02.980Z,8.10
2022-11-28T20:46:32.853Z,8.10
2022-11-28T20:49:02.145Z,8.10
2022-11-28T20:51:31.232Z,8.10
2022-11-28T20:54:00.110Z,8.10
2022-11-28T20:56:30.155Z,8.20
2022-11-28T20:59:01.635Z,8.20
2022-11-28T21:01:33.467Z,8.20
2022-11-28T21:04:01.874Z,8.10
2022-11-28T21:06:29.306Z,8.10
2022-11-28T21:08:57.742Z,8.10
2022-11-28T21:11:55.190Z,8.10
2022-11-28T21:14:15.276Z,8.10
2022-11-28T21:16:42.675Z,8.10
2022-11-28T21:19:09.885Z,8.20
2022-11-28T21:21:39.643Z,8.20
2022-11-28T21:24:10.562Z,8.20
2022-11-28T21:26:41.639Z,8.10
2022-11-28T21:29:12.727Z,8.20
2022-11-28T21:31:53.258Z,8.20
2022-11-28T21:34:23.386Z,8.20
2022-11-28T21:36:50.669Z,8.20
2022-11-28T21:39:20.039Z,8.20
2022-11-28T21:41:47.547Z,8.20
2022-11-28T21:44:14.610Z,8.20
2022-11-28T21:46:41.730Z,8.20
2022-11-28T21:49:08.834Z,8.20
2022-11-28T21:51:35.976Z,8.20
2022-11-28T21:54:02.966Z,8.20
2022-11-28T21:56:29.978Z,8.20
2022-11-28T21:58:56.919Z,8.20
2022-11-28T22:01:23.861Z,8.20
2022-11-28T22:03:51.019Z,8.20
2022-11-28T22:06:23.747Z,8.20
2022-11-28T22:08:52.305Z,8.20
2022-11-28T22:11:20.836Z,8.10
2022-11-28T22:13:50.516Z,8.20
2022-11-28T22:16:20.061Z,8.20
2022-11-28T22:18:48.436Z,8.20
2022-11-28T22:24:03.854Z,8.20
2022-11-28T22:26:30.895Z,8.20
2022-11-28T22:28:58.951Z,8.20
2022-11-28T22:31:26.353Z,8.20
2022-11-28T22:33:53.517Z,8.20
2022-11-28T22:36:21.275Z,8.20
2022-11-28T22:38:49.976Z,8.20
2022-11-28T22:41:26.395Z,8.20
2022-11-28T22:43:57.200Z,8.20
2022-11-28T22:46:24.657Z,8.20
2022-11-28T22:48:52.221Z,8.20
2022-11-28T22:51:22.407Z,8.30
2022-11-28T22:53:57.023Z,8.30
2022-11-28T22:56:24.422Z,8.30
2022-11-28T22:58:51.626Z,8.30
2022-11-28T23:01:24.311Z,8.30
2022-11-28T23:03:52.020Z,8.40
2022-11-28T23:06:23.913Z,8.30
2022-11-28T23:08:51.273Z,8.30
2022-11-28T23:11:20.566Z,8.30
2022-11-28T23:13:48.553Z,8.30
2022-11-28T23:16:17.334Z,8.30
2022-11-28T23:18:45.942Z,8.30
2022-11-28T23:21:13.785Z,8.30
2022-11-28T23:23:41.640Z,8.40
2022-11-28T23:26:16.744Z,8.30
2022-11-28T23:28:45.109Z,8.40
2022-11-28T23:31:15.244Z,8.30
2022-11-28T23:33:43.296Z,8.40
2022-11-28T23:36:18.190Z,8.30
2022-11-28T23:38:48.060Z,8.30
2022-11-28T23:41:15.606Z,8.40
2022-11-28T23:43:43.020Z,8.30
2022-11-28T23:46:11.872Z,8.30
2022-11-28T23:48:39.780Z,8.30
2022-11-28T23:51:07.623Z,8.40
2022-11-28T23:53:36.034Z,8.40
2022-11-28T23:56:26.735Z,8.40
2022-11-28T23:58:55.332Z,8.40
